sensor_id;sensor_type;location;lat;lon;timestamp;P1;durP1;ratioP1;P2;durP2;ratioP2
44722;SDS011;30451;48.638;10.624;2022-09-09T00:00:40;0.93;;;0.80;;
44722;SDS011;30451;48.638;10.624;2022-09-09T00:03:17;1.58;;;0.80;;
44722;SDS011;30451;48.638;10.624;2022-09-09T00:08:38;1.30;;;0.80;;
44722;SDS011;30451;48.638;10.624;2022-09-09T00:11:07;0.75;;;0.68;;
44722;SDS011;30451;48.638;10.624;2022-09-09T00:13:38;1.15;;;0.70;;
44722;SDS011;30451;48.638;10.624;2022-09-09T00:16:19;0.88;;;0.70;;
44722;SDS011;30451;48.638;10.624;2022-09-09T00:18:51;1.30;;;0.80;;
44722;SDS011;30451;48.638;10.624;2022-09-09T00:21:38;1.30;;;0.80;;
44722;SDS011;30451;48.638;10.624;2022-09-09T00:24:22;1.08;;;0.80;;
44722;SDS011;30451;48.638;10.624;2022-09-09T00:27:00;0.93;;;0.80;;
44722;SDS011;30451;48.638;10.624;2022-09-09T00:32:30;0.95;;;0.80;;
44722;SDS011;30451;48.638;10.624;2022-09-09T00:35:02;1.00;;;0.80;;
44722;SDS011;30451;48.638;10.624;2022-09-09T00:37:40;1.00;;;0.80;;
44722;SDS011;30451;48.638;10.624;2022-09-09T00:40:18;1.05;;;0.80;;
44722;SDS011;30451;48.638;10.624;2022-09-09T00:43:16;0.93;;;0.77;;
44722;SDS011;30451;48.638;10.624;2022-09-09T00:51:45;0.70;;;0.63;;
44722;SDS011;30451;48.638;10.624;2022-09-09T01:02:35;1.08;;;0.80;;
44722;SDS011;30451;48.638;10.624;2022-09-09T01:05:17;1.15;;;0.80;;
44722;SDS011;30451;48.638;10.624;2022-09-09T01:07:44;1.77;;;0.70;;
44722;SDS011;30451;48.638;10.624;2022-09-09T01:12:46;0.80;;;0.80;;
44722;SDS011;30451;48.638;10.624;2022-09-09T01:15:15;1.08;;;0.70;;
44722;SDS011;30451;48.638;10.624;2022-09-09T01:20:12;0.82;;;0.70;;
44722;SDS011;30451;48.638;10.624;2022-09-09T01:29:10;1.08;;;0.70;;
44722;SDS011;30451;48.638;10.624;2022-09-09T01:31:41;1.05;;;0.70;;
44722;SDS011;30451;48.638;10.624;2022-09-09T01:34:17;1.08;;;0.70;;
44722;SDS011;30451;48.638;10.624;2022-09-09T01:36:45;0.68;;;0.60;;
44722;SDS011;30451;48.638;10.624;2022-09-09T01:39:16;1.20;;;0.70;;
44722;SDS011;30451;48.638;10.624;2022-09-09T01:41:42;0.85;;;0.75;;
44722;SDS011;30451;48.638;10.624;2022-09-09T01:44:08;1.17;;;0.73;;
44722;SDS011;30451;48.638;10.624;2022-09-09T01:46:34;1.08;;;0.60;;
44722;SDS011;30451;48.638;10.624;2022-09-09T01:49:00;0.70;;;0.70;;
44722;SDS011;30451;48.638;10.624;2022-09-09T01:51:29;0.80;;;0.68;;
44722;SDS011;30451;48.638;10.624;2022-09-09T01:53:55;0.95;;;0.70;;
44722;SDS011;30451;48.638;10.624;2022-09-09T01:59:09;0.63;;;0.60;;
44722;SDS011;30451;48.638;10.624;2022-09-09T02:05:01;0.50;;;0.50;;
44722;SDS011;30451;48.638;10.624;2022-09-09T02:07:41;0.60;;;0.60;;
44722;SDS011;30451;48.638;10.624;2022-09-09T02:13:12;0.70;;;0.70;;
44722;SDS011;30451;48.638;10.624;2022-09-09T02:15:50;0.77;;;0.63;;
44722;SDS011;30451;48.638;10.624;2022-09-09T02:18:19;0.80;;;0.70;;
44722;SDS011;30451;48.638;10.624;2022-09-09T02:20:52;0.80;;;0.73;;
44722;SDS011;30451;48.638;10.624;2022-09-09T02:23:19;1.00;;;0.70;;
44722;SDS011;30451;48.638;10.624;2022-09-09T02:25:45;0.90;;;0.70;;
44722;SDS011;30451;48.638;10.624;2022-09-09T02:28:13;0.68;;;0.65;;
44722;SDS011;30451;48.638;10.624;2022-09-09T02:30:41;0.88;;;0.70;;
44722;SDS011;30451;48.638;10.624;2022-09-09T02:33:12;0.80;;;0.60;;
44722;SDS011;30451;48.638;10.624;2022-09-09T02:35:39;1.10;;;0.70;;
44722;SDS011;30451;48.638;10.624;2022-09-09T02:38:08;0.77;;;0.70;;
44722;SDS011;30451;48.638;10.624;2022-09-09T02:40:37;0.60;;;0.60;;
44722;SDS011;30451;48.638;10.624;2022-09-09T02:43:03;0.65;;;0.60;;
44722;SDS011;30451;48.638;10.624;2022-09-09T02:45:34;0.73;;;0.70;;
44722;SDS011;30451;48.638;10.624;2022-09-09T02:56:29;0.63;;;0.57;;
44722;SDS011;30451;48.638;10.624;2022-09-09T02:58:58;0.90;;;0.65;;
44722;SDS011;30451;48.638;10.624;2022-09-09T03:01:24;0.73;;;0.60;;
44722;SDS011;30451;48.638;10.624;2022-09-09T03:03:50;0.60;;;0.60;;
44722;SDS011;30451;48.638;10.624;2022-09-09T03:06:15;0.55;;;0.55;;
44722;SDS011;30451;48.638;10.624;2022-09-09T03:08:41;0.60;;;0.60;;
44722;SDS011;30451;48.638;10.624;2022-09-09T03:11:07;0.60;;;0.60;;
44722;SDS011;30451;48.638;10.624;2022-09-09T03:13:34;0.50;;;0.50;;
44722;SDS011;30451;48.638;10.624;2022-09-09T03:15:59;0.60;;;0.60;;
44722;SDS011;30451;48.638;10.624;2022-09-09T03:18:25;0.70;;;0.57;;
44722;SDS011;30451;48.638;10.624;2022-09-09T03:20:51;0.70;;;0.50;;
44722;SDS011;30451;48.638;10.624;2022-09-09T03:23:19;0.70;;;0.55;;
44722;SDS011;30451;48.638;10.624;2022-09-09T03:25:47;0.85;;;0.60;;
44722;SDS011;30451;48.638;10.624;2022-09-09T03:28:13;0.57;;;0.55;;
44722;SDS011;30451;48.638;10.624;2022-09-09T03:30:39;0.70;;;0.70;;
44722;SDS011;30451;48.638;10.624;2022-09-09T03:33:05;0.60;;;0.60;;
44722;SDS011;30451;48.638;10.624;2022-09-09T03:35:31;0.52;;;0.52;;
44722;SDS011;30451;48.638;10.624;2022-09-09T03:37:56;1.13;;;0.60;;
44722;SDS011;30451;48.638;10.624;2022-09-09T03:40:22;0.60;;;0.60;;
44722;SDS011;30451;48.638;10.624;2022-09-09T03:42:48;0.57;;;0.57;;
44722;SDS011;30451;48.638;10.624;2022-09-09T03:45:13;0.50;;;0.50;;
44722;SDS011;30451;48.638;10.624;2022-09-09T03:47:39;0.57;;;0.50;;
44722;SDS011;30451;48.638;10.624;2022-09-09T03:50:05;0.57;;;0.55;;
44722;SDS011;30451;48.638;10.624;2022-09-09T03:52:36;0.52;;;0.52;;
44722;SDS011;30451;48.638;10.624;2022-09-09T03:55:03;0.60;;;0.60;;
44722;SDS011;30451;48.638;10.624;2022-09-09T03:57:30;0.50;;;0.50;;
44722;SDS011;30451;48.638;10.624;2022-09-09T03:59:56;0.63;;;0.60;;
44722;SDS011;30451;48.638;10.624;2022-09-09T04:02:23;0.55;;;0.52;;
44722;SDS011;30451;48.638;10.624;2022-09-09T04:04:49;0.60;;;0.60;;
44722;SDS011;30451;48.638;10.624;2022-09-09T04:07:14;0.68;;;0.50;;
44722;SDS011;30451;48.638;10.624;2022-09-09T04:09:40;0.63;;;0.55;;
44722;SDS011;30451;48.638;10.624;2022-09-09T04:12:06;0.60;;;0.55;;
44722;SDS011;30451;48.638;10.624;2022-09-09T04:14:32;0.88;;;0.60;;
44722;SDS011;30451;48.638;10.624;2022-09-09T04:16:58;0.60;;;0.60;;
44722;SDS011;30451;48.638;10.624;2022-09-09T04:19:24;0.68;;;0.65;;
44722;SDS011;30451;48.638;10.624;2022-09-09T04:21:50;0.60;;;0.60;;
44722;SDS011;30451;48.638;10.624;2022-09-09T04:24:16;0.60;;;0.60;;
44722;SDS011;30451;48.638;10.624;2022-09-09T04:26:42;0.70;;;0.60;;
44722;SDS011;30451;48.638;10.624;2022-09-09T04:29:08;0.60;;;0.60;;
44722;SDS011;30451;48.638;10.624;2022-09-09T04:31:34;0.57;;;0.57;;
44722;SDS011;30451;48.638;10.624;2022-09-09T04:33:59;0.90;;;0.60;;
44722;SDS011;30451;48.638;10.624;2022-09-09T04:36:30;0.50;;;0.50;;
44722;SDS011;30451;48.638;10.624;2022-09-09T04:38:57;0.50;;;0.50;;
44722;SDS011;30451;48.638;10.624;2022-09-09T04:41:23;0.90;;;0.60;;
44722;SDS011;30451;48.638;10.624;2022-09-09T04:43:48;0.52;;;0.52;;
44722;SDS011;30451;48.638;10.624;2022-09-09T04:46:14;0.40;;;0.40;;
44722;SDS011;30451;48.638;10.624;2022-09-09T04:48:42;0.40;;;0.40;;
44722;SDS011;30451;48.638;10.624;2022-09-09T04:51:09;0.55;;;0.55;;
44722;SDS011;30451;48.638;10.624;2022-09-09T04:53:38;0.50;;;0.50;;
44722;SDS011;30451;48.638;10.624;2022-09-09T04:56:09;0.45;;;0.43;;
44722;SDS011;30451;48.638;10.624;2022-09-09T04:58:36;0.57;;;0.50;;
44722;SDS011;30451;48.638;10.624;2022-09-09T05:01:03;0.43;;;0.40;;
44722;SDS011;30451;48.638;10.624;2022-09-09T05:03:32;0.40;;;0.40;;
44722;SDS011;30451;48.638;10.624;2022-09-09T05:06:02;0.60;;;0.50;;
44722;SDS011;30451;48.638;10.624;2022-09-09T05:08:41;0.70;;;0.60;;
44722;SDS011;30451;48.638;10.624;2022-09-09T05:11:13;0.73;;;0.60;;
44722;SDS011;30451;48.638;10.624;2022-09-09T05:13:38;0.50;;;0.50;;
44722;SDS011;30451;48.638;10.624;2022-09-09T05:16:05;0.50;;;0.50;;
44722;SDS011;30451;48.638;10.624;2022-09-09T05:18:30;0.52;;;0.50;;
44722;SDS011;30451;48.638;10.624;2022-09-09T05:20:59;0.52;;;0.52;;
44722;SDS011;30451;48.638;10.624;2022-09-09T05:23:25;0.40;;;0.40;;
44722;SDS011;30451;48.638;10.624;2022-09-09T05:25:57;0.55;;;0.55;;
44722;SDS011;30451;48.638;10.624;2022-09-09T05:28:26;0.50;;;0.50;;
44722;SDS011;30451;48.638;10.624;2022-09-09T05:33:32;0.93;;;0.50;;
44722;SDS011;30451;48.638;10.624;2022-09-09T05:36:00;0.40;;;0.40;;
44722;SDS011;30451;48.638;10.624;2022-09-09T05:38:28;0.40;;;0.40;;
44722;SDS011;30451;48.638;10.624;2022-09-09T05:40:54;0.90;;;0.60;;
44722;SDS011;30451;48.638;10.624;2022-09-09T05:43:21;0.68;;;0.60;;
44722;SDS011;30451;48.638;10.624;2022-09-09T05:45:48;0.63;;;0.60;;
44722;SDS011;30451;48.638;10.624;2022-09-09T05:48:27;0.75;;;0.60;;
44722;SDS011;30451;48.638;10.624;2022-09-09T05:50:53;0.50;;;0.50;;
44722;SDS011;30451;48.638;10.624;2022-09-09T05:53:19;0.88;;;0.60;;
44722;SDS011;30451;48.638;10.624;2022-09-09T05:55:45;0.50;;;0.50;;
44722;SDS011;30451;48.638;10.624;2022-09-09T05:58:11;0.47;;;0.47;;
44722;SDS011;30451;48.638;10.624;2022-09-09T06:00:36;0.50;;;0.45;;
44722;SDS011;30451;48.638;10.624;2022-09-09T06:03:02;0.55;;;0.50;;
44722;SDS011;30451;48.638;10.624;2022-09-09T06:05:28;0.55;;;0.50;;
44722;SDS011;30451;48.638;10.624;2022-09-09T06:07:55;0.50;;;0.50;;
44722;SDS011;30451;48.638;10.624;2022-09-09T06:10:21;0.80;;;0.40;;
44722;SDS011;30451;48.638;10.624;2022-09-09T06:12:47;0.50;;;0.50;;
44722;SDS011;30451;48.638;10.624;2022-09-09T06:15:13;0.50;;;0.50;;
44722;SDS011;30451;48.638;10.624;2022-09-09T06:17:38;0.88;;;0.60;;
44722;SDS011;30451;48.638;10.624;2022-09-09T06:20:04;0.50;;;0.50;;
44722;SDS011;30451;48.638;10.624;2022-09-09T06:22:30;0.47;;;0.47;;
44722;SDS011;30451;48.638;10.624;2022-09-09T06:24:56;0.70;;;0.60;;
44722;SDS011;30451;48.638;10.624;2022-09-09T06:27:21;0.60;;;0.55;;
44722;SDS011;30451;48.638;10.624;2022-09-09T06:29:47;0.98;;;0.63;;
44722;SDS011;30451;48.638;10.624;2022-09-09T06:32:13;1.65;;;0.60;;
44722;SDS011;30451;48.638;10.624;2022-09-09T06:34:39;1.02;;;0.50;;
44722;SDS011;30451;48.638;10.624;2022-09-09T06:37:04;0.60;;;0.60;;
44722;SDS011;30451;48.638;10.624;2022-09-09T06:39:31;0.70;;;0.70;;
44722;SDS011;30451;48.638;10.624;2022-09-09T06:41:57;0.50;;;0.50;;
44722;SDS011;30451;48.638;10.624;2022-09-09T06:44:23;0.50;;;0.50;;
44722;SDS011;30451;48.638;10.624;2022-09-09T06:46:51;0.68;;;0.68;;
44722;SDS011;30451;48.638;10.624;2022-09-09T06:49:17;0.50;;;0.50;;
44722;SDS011;30451;48.638;10.624;2022-09-09T06:51:43;0.95;;;0.60;;
44722;SDS011;30451;48.638;10.624;2022-09-09T06:54:09;0.63;;;0.60;;
44722;SDS011;30451;48.638;10.624;2022-09-09T06:56:37;0.60;;;0.50;;
44722;SDS011;30451;48.638;10.624;2022-09-09T06:59:08;1.63;;;0.60;;
44722;SDS011;30451;48.638;10.624;2022-09-09T07:01:35;0.68;;;0.68;;
44722;SDS011;30451;48.638;10.624;2022-09-09T07:04:03;0.68;;;0.60;;
44722;SDS011;30451;48.638;10.624;2022-09-09T07:06:32;0.77;;;0.60;;
44722;SDS011;30451;48.638;10.624;2022-09-09T07:09:01;0.50;;;0.50;;
44722;SDS011;30451;48.638;10.624;2022-09-09T07:11:31;1.27;;;0.63;;
44722;SDS011;30451;48.638;10.624;2022-09-09T07:13:58;0.95;;;0.70;;
44722;SDS011;30451;48.638;10.624;2022-09-09T07:16:25;0.60;;;0.60;;
44722;SDS011;30451;48.638;10.624;2022-09-09T07:18:52;0.75;;;0.60;;
44722;SDS011;30451;48.638;10.624;2022-09-09T07:21:22;0.82;;;0.68;;
44722;SDS011;30451;48.638;10.624;2022-09-09T07:23:49;0.50;;;0.50;;
44722;SDS011;30451;48.638;10.624;2022-09-09T07:26:16;1.00;;;0.60;;
44722;SDS011;30451;48.638;10.624;2022-09-09T07:28:44;0.60;;;0.60;;
44722;SDS011;30451;48.638;10.624;2022-09-09T07:31:19;0.57;;;0.57;;
44722;SDS011;30451;48.638;10.624;2022-09-09T07:33:47;0.45;;;0.40;;
44722;SDS011;30451;48.638;10.624;2022-09-09T07:38:41;0.82;;;0.60;;
44722;SDS011;30451;48.638;10.624;2022-09-09T07:41:12;0.55;;;0.55;;
44722;SDS011;30451;48.638;10.624;2022-09-09T07:43:44;0.75;;;0.60;;
44722;SDS011;30451;48.638;10.624;2022-09-09T07:46:13;0.77;;;0.57;;
44722;SDS011;30451;48.638;10.624;2022-09-09T07:48:43;0.60;;;0.60;;
44722;SDS011;30451;48.638;10.624;2022-09-09T07:51:12;0.80;;;0.70;;
44722;SDS011;30451;48.638;10.624;2022-09-09T07:53:43;0.50;;;0.50;;
44722;SDS011;30451;48.638;10.624;2022-09-09T07:56:10;0.60;;;0.60;;
44722;SDS011;30451;48.638;10.624;2022-09-09T07:58:39;0.82;;;0.70;;
44722;SDS011;30451;48.638;10.624;2022-09-09T08:01:08;0.68;;;0.60;;
44722;SDS011;30451;48.638;10.624;2022-09-09T08:03:36;0.82;;;0.50;;
44722;SDS011;30451;48.638;10.624;2022-09-09T08:06:03;0.55;;;0.55;;
44722;SDS011;30451;48.638;10.624;2022-09-09T08:11:05;0.95;;;0.40;;
44722;SDS011;30451;48.638;10.624;2022-09-09T08:13:41;0.75;;;0.60;;
44722;SDS011;30451;48.638;10.624;2022-09-09T08:16:10;0.90;;;0.50;;
44722;SDS011;30451;48.638;10.624;2022-09-09T08:18:40;0.60;;;0.60;;
44722;SDS011;30451;48.638;10.624;2022-09-09T08:21:07;0.50;;;0.50;;
44722;SDS011;30451;48.638;10.624;2022-09-09T08:23:42;0.90;;;0.60;;
44722;SDS011;30451;48.638;10.624;2022-09-09T08:26:11;0.63;;;0.60;;
44722;SDS011;30451;48.638;10.624;2022-09-09T08:28:39;0.60;;;0.60;;
44722;SDS011;30451;48.638;10.624;2022-09-09T08:31:09;0.85;;;0.70;;
44722;SDS011;30451;48.638;10.624;2022-09-09T08:33:43;0.60;;;0.60;;
44722;SDS011;30451;48.638;10.624;2022-09-09T08:36:11;0.60;;;0.60;;
44722;SDS011;30451;48.638;10.624;2022-09-09T08:38:47;0.85;;;0.68;;
44722;SDS011;30451;48.638;10.624;2022-09-09T08:44:07;1.00;;;0.60;;
44722;SDS011;30451;48.638;10.624;2022-09-09T08:52:22;0.50;;;0.50;;
44722;SDS011;30451;48.638;10.624;2022-09-09T08:57:51;0.40;;;0.40;;
44722;SDS011;30451;48.638;10.624;2022-09-09T09:00:19;0.60;;;0.50;;
44722;SDS011;30451;48.638;10.624;2022-09-09T09:05:26;0.40;;;0.40;;
44722;SDS011;30451;48.638;10.624;2022-09-09T09:13:15;0.43;;;0.43;;
44722;SDS011;30451;48.638;10.624;2022-09-09T09:15:50;0.40;;;0.40;;
44722;SDS011;30451;48.638;10.624;2022-09-09T09:18:21;0.40;;;0.40;;
44722;SDS011;30451;48.638;10.624;2022-09-09T09:20:53;0.57;;;0.50;;
44722;SDS011;30451;48.638;10.624;2022-09-09T09:23:42;0.50;;;0.50;;
44722;SDS011;30451;48.638;10.624;2022-09-09T09:26:17;1.20;;;0.55;;
44722;SDS011;30451;48.638;10.624;2022-09-09T09:28:43;0.50;;;0.50;;
44722;SDS011;30451;48.638;10.624;2022-09-09T09:31:10;0.65;;;0.52;;
44722;SDS011;30451;48.638;10.624;2022-09-09T09:36:15;0.50;;;0.50;;
44722;SDS011;30451;48.638;10.624;2022-09-09T09:38:51;0.55;;;0.55;;
44722;SDS011;30451;48.638;10.624;2022-09-09T09:41:29;0.43;;;0.43;;
44722;SDS011;30451;48.638;10.624;2022-09-09T09:44:04;0.60;;;0.60;;
44722;SDS011;30451;48.638;10.624;2022-09-09T09:46:30;0.50;;;0.50;;
44722;SDS011;30451;48.638;10.624;2022-09-09T09:48:57;0.47;;;0.47;;
44722;SDS011;30451;48.638;10.624;2022-09-09T09:51:30;0.43;;;0.40;;
44722;SDS011;30451;48.638;10.624;2022-09-09T09:56:53;0.75;;;0.60;;
44722;SDS011;30451;48.638;10.624;2022-09-09T10:02:15;0.63;;;0.50;;
44722;SDS011;30451;48.638;10.624;2022-09-09T10:04:46;0.40;;;0.40;;
44722;SDS011;30451;48.638;10.624;2022-09-09T10:07:19;0.45;;;0.45;;
44722;SDS011;30451;48.638;10.624;2022-09-09T10:09:53;0.40;;;0.40;;
44722;SDS011;30451;48.638;10.624;2022-09-09T10:12:24;1.25;;;0.50;;
44722;SDS011;30451;48.638;10.624;2022-09-09T10:15:01;0.40;;;0.40;;
44722;SDS011;30451;48.638;10.624;2022-09-09T10:43:03;0.45;;;0.45;;
44722;SDS011;30451;48.638;10.624;2022-09-09T10:45:49;0.50;;;0.50;;
44722;SDS011;30451;48.638;10.624;2022-09-09T10:56:22;0.40;;;0.40;;
44722;SDS011;30451;48.638;10.624;2022-09-09T11:01:49;0.57;;;0.47;;
44722;SDS011;30451;48.638;10.624;2022-09-09T11:04:22;0.40;;;0.40;;
44722;SDS011;30451;48.638;10.624;2022-09-09T11:06:54;0.40;;;0.40;;
44722;SDS011;30451;48.638;10.624;2022-09-09T11:09:27;0.47;;;0.47;;
44722;SDS011;30451;48.638;10.624;2022-09-09T11:11:57;0.77;;;0.52;;
44722;SDS011;30451;48.638;10.624;2022-09-09T11:14:37;0.50;;;0.50;;
44722;SDS011;30451;48.638;10.624;2022-09-09T11:17:09;0.50;;;0.50;;
44722;SDS011;30451;48.638;10.624;2022-09-09T11:19:43;0.40;;;0.40;;
44722;SDS011;30451;48.638;10.624;2022-09-09T11:25:34;0.73;;;0.50;;
44722;SDS011;30451;48.638;10.624;2022-09-09T11:31:07;0.50;;;0.50;;
44722;SDS011;30451;48.638;10.624;2022-09-09T11:42:37;0.40;;;0.40;;
44722;SDS011;30451;48.638;10.624;2022-09-09T11:44:45;0.50;;;0.50;;
44722;SDS011;30451;48.638;10.624;2022-09-09T11:47:22;0.68;;;0.50;;
44722;SDS011;30451;48.638;10.624;2022-09-09T11:49:51;0.40;;;0.40;;
44722;SDS011;30451;48.638;10.624;2022-09-09T11:55:27;0.45;;;0.45;;
44722;SDS011;30451;48.638;10.624;2022-09-09T12:00:39;0.50;;;0.50;;
44722;SDS011;30451;48.638;10.624;2022-09-09T12:06:12;0.52;;;0.50;;
44722;SDS011;30451;48.638;10.624;2022-09-09T12:08:41;0.85;;;0.60;;
44722;SDS011;30451;48.638;10.624;2022-09-09T12:11:08;0.65;;;0.50;;
44722;SDS011;30451;48.638;10.624;2022-09-09T12:13:34;1.20;;;0.80;;
44722;SDS011;30451;48.638;10.624;2022-09-09T12:16:01;0.90;;;0.60;;
44722;SDS011;30451;48.638;10.624;2022-09-09T12:18:37;0.80;;;0.60;;
44722;SDS011;30451;48.638;10.624;2022-09-09T12:23:53;0.63;;;0.60;;
44722;SDS011;30451;48.638;10.624;2022-09-09T12:26:26;0.70;;;0.60;;
44722;SDS011;30451;48.638;10.624;2022-09-09T12:31:48;0.50;;;0.50;;
44722;SDS011;30451;48.638;10.624;2022-09-09T12:34:38;0.60;;;0.50;;
44722;SDS011;30451;48.638;10.624;2022-09-09T12:37:16;2.15;;;0.70;;
44722;SDS011;30451;48.638;10.624;2022-09-09T12:39:56;0.40;;;0.40;;
44722;SDS011;30451;48.638;10.624;2022-09-09T12:42:24;0.63;;;0.60;;
44722;SDS011;30451;48.638;10.624;2022-09-09T12:44:51;0.80;;;0.80;;
44722;SDS011;30451;48.638;10.624;2022-09-09T12:47:17;0.80;;;0.60;;
44722;SDS011;30451;48.638;10.624;2022-09-09T12:49:45;0.68;;;0.60;;
44722;SDS011;30451;48.638;10.624;2022-09-09T12:54:49;0.73;;;0.43;;
44722;SDS011;30451;48.638;10.624;2022-09-09T12:59:44;0.95;;;0.50;;
44722;SDS011;30451;48.638;10.624;2022-09-09T13:02:44;0.75;;;0.60;;
44722;SDS011;30451;48.638;10.624;2022-09-09T13:05:43;0.80;;;0.60;;
44722;SDS011;30451;48.638;10.624;2022-09-09T13:08:04;0.68;;;0.50;;
44722;SDS011;30451;48.638;10.624;2022-09-09T13:10:33;0.70;;;0.65;;
44722;SDS011;30451;48.638;10.624;2022-09-09T13:13:03;0.80;;;0.60;;
44722;SDS011;30451;48.638;10.624;2022-09-09T13:15:36;0.88;;;0.50;;
44722;SDS011;30451;48.638;10.624;2022-09-09T13:18:03;0.63;;;0.50;;
44722;SDS011;30451;48.638;10.624;2022-09-09T13:20:31;0.57;;;0.50;;
44722;SDS011;30451;48.638;10.624;2022-09-09T13:22:57;0.60;;;0.57;;
44722;SDS011;30451;48.638;10.624;2022-09-09T13:25:29;1.20;;;0.50;;
44722;SDS011;30451;48.638;10.624;2022-09-09T13:28:05;1.80;;;0.60;;
44722;SDS011;30451;48.638;10.624;2022-09-09T13:30:54;0.88;;;0.60;;
44722;SDS011;30451;48.638;10.624;2022-09-09T13:33:29;0.50;;;0.50;;
44722;SDS011;30451;48.638;10.624;2022-09-09T13:36:05;0.43;;;0.43;;
44722;SDS011;30451;48.638;10.624;2022-09-09T13:38:36;0.50;;;0.50;;
44722;SDS011;30451;48.638;10.624;2022-09-09T13:41:25;0.73;;;0.50;;
44722;SDS011;30451;48.638;10.624;2022-09-09T13:44:00;0.50;;;0.50;;
44722;SDS011;30451;48.638;10.624;2022-09-09T13:46:37;1.27;;;0.50;;
44722;SDS011;30451;48.638;10.624;2022-09-09T13:51:38;1.00;;;0.60;;
44722;SDS011;30451;48.638;10.624;2022-09-09T13:54:06;0.50;;;0.50;;
44722;SDS011;30451;48.638;10.624;2022-09-09T13:56:35;0.70;;;0.50;;
44722;SDS011;30451;48.638;10.624;2022-09-09T13:59:02;0.40;;;0.40;;
44722;SDS011;30451;48.638;10.624;2022-09-09T14:01:29;0.40;;;0.40;;
44722;SDS011;30451;48.638;10.624;2022-09-09T14:03:56;1.00;;;0.60;;
44722;SDS011;30451;48.638;10.624;2022-09-09T14:06:22;0.82;;;0.50;;
44722;SDS011;30451;48.638;10.624;2022-09-09T14:08:50;0.50;;;0.50;;
44722;SDS011;30451;48.638;10.624;2022-09-09T14:11:16;0.40;;;0.40;;
44722;SDS011;30451;48.638;10.624;2022-09-09T14:13:43;0.80;;;0.55;;
44722;SDS011;30451;48.638;10.624;2022-09-09T14:16:08;0.85;;;0.60;;
44722;SDS011;30451;48.638;10.624;2022-09-09T14:18:34;0.77;;;0.50;;
44722;SDS011;30451;48.638;10.624;2022-09-09T14:21:00;1.73;;;0.50;;
44722;SDS011;30451;48.638;10.624;2022-09-09T14:23:27;0.57;;;0.55;;
44722;SDS011;30451;48.638;10.624;2022-09-09T14:25:54;0.70;;;0.50;;
44722;SDS011;30451;48.638;10.624;2022-09-09T14:28:20;0.40;;;0.40;;
44722;SDS011;30451;48.638;10.624;2022-09-09T14:30:45;0.40;;;0.40;;
44722;SDS011;30451;48.638;10.624;2022-09-09T14:33:12;0.40;;;0.40;;
44722;SDS011;30451;48.638;10.624;2022-09-09T14:35:39;0.60;;;0.50;;
44722;SDS011;30451;48.638;10.624;2022-09-09T14:38:06;0.45;;;0.40;;
44722;SDS011;30451;48.638;10.624;2022-09-09T14:40:33;0.70;;;0.50;;
44722;SDS011;30451;48.638;10.624;2022-09-09T14:43:00;0.38;;;0.35;;
44722;SDS011;30451;48.638;10.624;2022-09-09T14:45:26;0.73;;;0.50;;
44722;SDS011;30451;48.638;10.624;2022-09-09T14:47:51;0.85;;;0.50;;
44722;SDS011;30451;48.638;10.624;2022-09-09T14:50:18;0.75;;;0.50;;
44722;SDS011;30451;48.638;10.624;2022-09-09T14:52:44;0.40;;;0.40;;
44722;SDS011;30451;48.638;10.624;2022-09-09T14:55:10;0.57;;;0.47;;
44722;SDS011;30451;48.638;10.624;2022-09-09T14:57:36;0.40;;;0.40;;
44722;SDS011;30451;48.638;10.624;2022-09-09T15:00:05;0.55;;;0.50;;
44722;SDS011;30451;48.638;10.624;2022-09-09T15:02:32;1.25;;;0.73;;
44722;SDS011;30451;48.638;10.624;2022-09-09T15:04:58;1.80;;;0.70;;
44722;SDS011;30451;48.638;10.624;2022-09-09T15:07:24;1.42;;;0.70;;
44722;SDS011;30451;48.638;10.624;2022-09-09T15:09:50;1.52;;;0.90;;
44722;SDS011;30451;48.638;10.624;2022-09-09T15:12:17;2.45;;;0.80;;
44722;SDS011;30451;48.638;10.624;2022-09-09T15:14:46;1.55;;;0.70;;
44722;SDS011;30451;48.638;10.624;2022-09-09T15:17:12;1.00;;;0.90;;
44722;SDS011;30451;48.638;10.624;2022-09-09T15:19:38;1.33;;;0.70;;
44722;SDS011;30451;48.638;10.624;2022-09-09T15:22:04;1.00;;;0.68;;
44722;SDS011;30451;48.638;10.624;2022-09-09T15:24:31;1.75;;;0.77;;
44722;SDS011;30451;48.638;10.624;2022-09-09T15:26:58;1.17;;;0.60;;
44722;SDS011;30451;48.638;10.624;2022-09-09T15:29:24;1.25;;;0.80;;
44722;SDS011;30451;48.638;10.624;2022-09-09T15:31:50;1.05;;;0.80;;
44722;SDS011;30451;48.638;10.624;2022-09-09T15:34:15;0.65;;;0.60;;
44722;SDS011;30451;48.638;10.624;2022-09-09T15:36:42;1.17;;;0.60;;
44722;SDS011;30451;48.638;10.624;2022-09-09T15:39:09;1.23;;;0.60;;
44722;SDS011;30451;48.638;10.624;2022-09-09T15:41:37;1.05;;;0.60;;
44722;SDS011;30451;48.638;10.624;2022-09-09T15:44:04;0.98;;;0.60;;
44722;SDS011;30451;48.638;10.624;2022-09-09T15:49:19;0.77;;;0.60;;
44722;SDS011;30451;48.638;10.624;2022-09-09T15:51:53;1.10;;;0.60;;
44722;SDS011;30451;48.638;10.624;2022-09-09T15:54:21;1.77;;;0.60;;
44722;SDS011;30451;48.638;10.624;2022-09-09T15:56:56;1.20;;;0.57;;
44722;SDS011;30451;48.638;10.624;2022-09-09T15:59:24;0.68;;;0.60;;
44722;SDS011;30451;48.638;10.624;2022-09-09T16:01:52;0.98;;;0.65;;
44722;SDS011;30451;48.638;10.624;2022-09-09T16:04:20;1.15;;;0.70;;
44722;SDS011;30451;48.638;10.624;2022-09-09T16:06:53;0.80;;;0.60;;
44722;SDS011;30451;48.638;10.624;2022-09-09T16:09:20;1.08;;;0.70;;
44722;SDS011;30451;48.638;10.624;2022-09-09T16:11:46;1.20;;;0.60;;
44722;SDS011;30451;48.638;10.624;2022-09-09T16:14:13;1.17;;;0.55;;
44722;SDS011;30451;48.638;10.624;2022-09-09T16:16:40;1.98;;;0.80;;
44722;SDS011;30451;48.638;10.624;2022-09-09T16:19:08;1.30;;;0.60;;
44722;SDS011;30451;48.638;10.624;2022-09-09T16:24:04;1.03;;;0.63;;
44722;SDS011;30451;48.638;10.624;2022-09-09T16:26:32;1.30;;;0.50;;
44722;SDS011;30451;48.638;10.624;2022-09-09T16:29:00;2.07;;;0.50;;
44722;SDS011;30451;48.638;10.624;2022-09-09T16:31:28;0.60;;;0.43;;
44722;SDS011;30451;48.638;10.624;2022-09-09T16:33:55;0.98;;;0.50;;
44722;SDS011;30451;48.638;10.624;2022-09-09T16:36:24;0.57;;;0.50;;
44722;SDS011;30451;48.638;10.624;2022-09-09T16:38:56;0.68;;;0.45;;
44722;SDS011;30451;48.638;10.624;2022-09-09T16:41:23;2.10;;;0.50;;
44722;SDS011;30451;48.638;10.624;2022-09-09T16:43:54;0.70;;;0.40;;
44722;SDS011;30451;48.638;10.624;2022-09-09T16:46:24;3.85;;;1.88;;
44722;SDS011;30451;48.638;10.624;2022-09-09T16:48:50;8.43;;;4.97;;
44722;SDS011;30451;48.638;10.624;2022-09-09T16:51:23;32.35;;;18.52;;
44722;SDS011;30451;48.638;10.624;2022-09-09T16:53:52;99.25;;;58.72;;
44722;SDS011;30451;48.638;10.624;2022-09-09T16:56:19;158.73;;;97.82;;
44722;SDS011;30451;48.638;10.624;2022-09-09T16:58:50;154.50;;;103.68;;
44722;SDS011;30451;48.638;10.624;2022-09-09T17:01:17;131.70;;;91.57;;
44722;SDS011;30451;48.638;10.624;2022-09-09T17:03:43;109.60;;;77.45;;
44722;SDS011;30451;48.638;10.624;2022-09-09T17:06:12;90.22;;;62.88;;
44722;SDS011;30451;48.638;10.624;2022-09-09T17:08:39;76.63;;;52.42;;
44722;SDS011;30451;48.638;10.624;2022-09-09T17:11:15;61.22;;;42.83;;
44722;SDS011;30451;48.638;10.624;2022-09-09T17:13:43;51.33;;;35.47;;
44722;SDS011;30451;48.638;10.624;2022-09-09T17:16:14;45.15;;;30.80;;
44722;SDS011;30451;48.638;10.624;2022-09-09T17:18:41;41.15;;;25.95;;
44722;SDS011;30451;48.638;10.624;2022-09-09T17:21:08;32.63;;;22.52;;
44722;SDS011;30451;48.638;10.624;2022-09-09T17:23:37;27.65;;;18.70;;
44722;SDS011;30451;48.638;10.624;2022-09-09T17:26:03;22.17;;;14.55;;
44722;SDS011;30451;48.638;10.624;2022-09-09T17:28:32;16.27;;;11.52;;